Saint Marks, Florida
Current Conditions -  °F | °C
As of 11:53 AM on Friday 19 Dec 2014 (Local Time) from KTLH Reporting Station
Broken Clouds Broken Clouds  
Wind Chill: 63°   Ceiling: 25000
Heat Index: 63°   Visibility: 10mi
Dew Point: 37°   Wind: 7mph
Humidity: 38%   Direction: 30°NNE
Pressure: 30.15"   Gusts: NA
Location:  30.16°N, 84.21°W
Report Text: KTLH 191653Z 03006KT 10SM FEW055 BKN250 17/03 A3015 RMK AO2 SLP209 T01720028 $
Loading
Personal Weather Stations






























Interactive Weather Map New forecast layout! Learn more

10-Day Weather Forecast

Advertisements
Track Severe Weather on mobile